createdAt,value
2018-10-03T00:00:18.048Z,11.46
2018-10-03T00:01:17.686Z,11.45
2018-10-03T00:02:17.745Z,11.43
2018-10-03T00:03:17.720Z,11.46
2018-10-03T00:04:17.664Z,11.46
2018-10-03T00:05:17.738Z,11.44
2018-10-03T00:06:17.802Z,11.43
2018-10-03T00:07:17.673Z,11.44
2018-10-03T00:08:17.788Z,11.43
2018-10-03T00:09:17.679Z,11.43
2018-10-03T00:10:17.769Z,11.41
2018-10-03T00:11:17.807Z,11.41
2018-10-03T00:12:17.741Z,11.41
2018-10-03T00:13:17.789Z,11.41
2018-10-03T00:14:17.688Z,11.37
2018-10-03T00:15:17.746Z,11.37
2018-10-03T00:16:17.773Z,11.38
2018-10-03T00:17:17.818Z,11.36
2018-10-03T00:18:17.720Z,11.37
2018-10-03T00:19:17.705Z,11.37
2018-10-03T00:20:17.736Z,11.36
2018-10-03T00:21:17.655Z,11.36
2018-10-03T00:22:17.688Z,11.35
2018-10-03T00:24:17.764Z,11.4
2018-10-03T00:25:17.731Z,11.4
2018-10-03T00:26:17.905Z,11.38
2018-10-03T00:27:17.729Z,11.38
2018-10-03T00:28:17.744Z,11.4
2018-10-03T00:29:17.763Z,11.41
2018-10-03T00:30:17.718Z,11.41
2018-10-03T00:31:17.653Z,11.42
2018-10-03T00:32:17.680Z,11.4
2018-10-03T00:33:18.058Z,11.42
2018-10-03T00:34:17.710Z,11.43
2018-10-03T00:35:17.689Z,11.43
2018-10-03T00:36:17.678Z,11.43
2018-10-03T00:37:17.690Z,11.44
2018-10-03T00:38:17.701Z,11.47
2018-10-03T00:39:17.750Z,11.48
2018-10-03T00:40:17.674Z,11.48
2018-10-03T00:41:17.670Z,11.49
2018-10-03T00:42:17.601Z,11.49
2018-10-03T00:43:17.626Z,11.5
2018-10-03T00:44:17.692Z,11.49
2018-10-03T00:45:17.629Z,11.52
2018-10-03T00:46:17.683Z,11.5
2018-10-03T00:47:17.627Z,11.52
2018-10-03T00:48:17.650Z,11.51
2018-10-03T00:49:17.646Z,11.55
2018-10-03T00:50:17.659Z,11.52
2018-10-03T00:51:17.648Z,11.55
2018-10-03T00:52:17.612Z,11.54
2018-10-03T00:53:17.602Z,11.55
2018-10-03T00:54:17.616Z,11.56
2018-10-03T00:55:17.568Z,11.56
2018-10-03T00:56:17.590Z,11.56
2018-10-03T00:57:17.630Z,11.56
2018-10-03T00:58:17.623Z,11.58
2018-10-03T00:59:17.603Z,11.56
2018-10-03T01:00:17.639Z,11.56
2018-10-03T01:01:17.644Z,11.56
2018-10-03T01:02:17.621Z,11.59
2018-10-03T01:03:17.696Z,11.57
2018-10-03T01:04:17.797Z,11.6
2018-10-03T01:05:17.926Z,11.58
2018-10-03T01:06:18.224Z,11.61
2018-10-03T01:07:17.610Z,11.61
2018-10-03T01:08:17.915Z,11.6
2018-10-03T01:09:17.680Z,11.61
2018-10-03T01:10:17.564Z,11.61
2018-10-03T01:11:17.640Z,11.62
2018-10-03T01:12:17.587Z,11.63
2018-10-03T01:13:17.638Z,11.62
2018-10-03T01:14:17.775Z,11.62
2018-10-03T01:15:17.601Z,11.63
2018-10-03T01:16:17.688Z,11.63
2018-10-03T01:17:17.602Z,11.63
2018-10-03T01:18:17.669Z,11.64
2018-10-03T01:19:17.639Z,11.66
2018-10-03T01:20:17.652Z,11.67
2018-10-03T01:21:17.714Z,11.66
2018-10-03T01:22:17.638Z,11.66
2018-10-03T01:23:17.737Z,11.67
2018-10-03T01:24:17.750Z,11.67
2018-10-03T01:25:17.947Z,11.68
2018-10-03T01:26:17.595Z,11.69
2018-10-03T01:27:17.627Z,11.69
2018-10-03T01:28:17.756Z,11.68
2018-10-03T01:29:18.395Z,11.69
2018-10-03T01:30:17.700Z,11.68
2018-10-03T01:31:17.579Z,11.69
2018-10-03T01:32:17.558Z,11.69
2018-10-03T01:33:17.589Z,11.72
2018-10-03T01:34:17.645Z,11.72
2018-10-03T01:35:17.697Z,11.72
2018-10-03T01:36:17.626Z,11.72
2018-10-03T01:37:17.565Z,11.72
2018-10-03T01:38:18.085Z,11.73
2018-10-03T01:39:17.586Z,11.71
2018-10-03T01:40:17.657Z,11.73
2018-10-03T01:41:17.631Z,11.74
2018-10-03T01:42:17.584Z,11.73
2018-10-03T01:43:17.688Z,11.73
2018-10-03T01:44:17.623Z,11.75
2018-10-03T01:45:17.589Z,11.75
2018-10-03T01:46:17.763Z,11.74
2018-10-03T01:47:17.668Z,11.77
2018-10-03T01:48:17.526Z,11.75
2018-10-03T01:49:17.681Z,11.77
2018-10-03T01:50:17.624Z,11.79
2018-10-03T01:51:17.543Z,11.78
2018-10-03T01:52:17.608Z,11.79
2018-10-03T01:53:17.651Z,11.79
2018-10-03T01:54:17.653Z,11.79
2018-10-03T01:55:17.528Z,11.76
2018-10-03T01:56:17.831Z,11.79
2018-10-03T01:57:17.606Z,11.8
2018-10-03T01:58:17.680Z,11.79
2018-10-03T01:59:17.586Z,11.79
2018-10-03T02:00:17.591Z,11.8
2018-10-03T02:01:17.650Z,11.8
2018-10-03T02:02:17.546Z,11.8
2018-10-03T02:03:17.818Z,11.81
2018-10-03T02:04:17.500Z,11.82
2018-10-03T02:05:17.512Z,11.82
2018-10-03T02:06:17.531Z,11.84
2018-10-03T02:07:17.508Z,11.85
2018-10-03T02:08:17.507Z,11.84
2018-10-03T02:09:17.690Z,11.83
2018-10-03T02:10:17.621Z,11.85
2018-10-03T02:11:17.540Z,11.85
2018-10-03T02:12:17.568Z,11.85
2018-10-03T02:13:17.521Z,11.87
2018-10-03T02:14:17.580Z,11.87
2018-10-03T02:15:17.806Z,11.87
2018-10-03T02:16:17.500Z,11.87
2018-10-03T02:17:17.500Z,11.88
2018-10-03T02:18:17.545Z,11.87
2018-10-03T02:19:17.893Z,11.89
2018-10-03T02:20:17.521Z,11.9
2018-10-03T02:21:17.486Z,11.88
2018-10-03T02:22:17.499Z,11.9
2018-10-03T02:23:17.505Z,11.88
2018-10-03T02:24:17.481Z,11.91
2018-10-03T02:25:17.498Z,11.91
2018-10-03T02:26:17.566Z,11.91
2018-10-03T02:27:17.531Z,11.92
2018-10-03T02:28:17.502Z,11.92
2018-10-03T02:29:17.484Z,11.94
2018-10-03T02:30:17.504Z,11.93
2018-10-03T02:31:17.763Z,11.93
2018-10-03T02:32:17.509Z,11.92
2018-10-03T02:33:17.670Z,11.95
2018-10-03T02:34:17.584Z,11.92
2018-10-03T02:35:17.535Z,11.92
2018-10-03T02:36:18.324Z,11.95
2018-10-03T02:37:17.876Z,11.93
2018-10-03T02:38:17.560Z,11.93
2018-10-03T02:39:17.583Z,11.93
2018-10-03T02:40:17.747Z,11.96
2018-10-03T02:41:17.611Z,11.94
2018-10-03T02:42:17.752Z,11.94
2018-10-03T02:43:17.654Z,11.94
2018-10-03T02:44:17.815Z,11.94
2018-10-03T02:45:17.640Z,11.97
2018-10-03T02:46:17.716Z,11.94
2018-10-03T02:47:17.688Z,11.96
2018-10-03T02:48:17.545Z,11.94
2018-10-03T02:49:17.499Z,11.94
2018-10-03T02:50:17.585Z,11.94
2018-10-03T02:51:17.571Z,11.94
2018-10-03T02:52:17.692Z,11.94
2018-10-03T02:53:17.525Z,11.94
2018-10-03T02:54:17.626Z,11.95
2018-10-03T02:55:17.473Z,11.94
2018-10-03T02:56:17.541Z,11.93
2018-10-03T02:57:17.838Z,11.94
2018-10-03T02:58:17.883Z,11.94
2018-10-03T02:59:17.441Z,11.94
2018-10-03T03:00:17.645Z,11.94
2018-10-03T03:01:17.528Z,11.94
2018-10-03T03:02:17.658Z,11.95
2018-10-03T03:03:17.467Z,11.94
2018-10-03T03:04:17.639Z,11.96
2018-10-03T03:05:17.525Z,11.94
2018-10-03T03:06:17.501Z,11.97
2018-10-03T03:07:17.840Z,11.97
2018-10-03T03:08:17.544Z,11.98
2018-10-03T03:09:17.985Z,11.97
2018-10-03T03:10:17.500Z,11.96
2018-10-03T03:11:17.434Z,11.94
2018-10-03T03:12:17.451Z,11.92
2018-10-03T03:13:17.626Z,11.94
2018-10-03T03:14:17.412Z,11.93
2018-10-03T03:15:17.434Z,11.95
2018-10-03T03:16:17.681Z,11.91
2018-10-03T03:17:17.712Z,11.92
2018-10-03T03:18:17.570Z,11.92
2018-10-03T03:19:17.672Z,11.92
2018-10-03T03:20:17.451Z,11.93
2018-10-03T03:21:17.427Z,11.93
2018-10-03T03:22:17.596Z,11.93
2018-10-03T03:23:17.495Z,11.93
2018-10-03T03:24:17.467Z,11.92
2018-10-03T03:25:17.381Z,11.93
2018-10-03T03:26:17.726Z,11.92
2018-10-03T03:27:17.476Z,11.91
2018-10-03T03:28:17.433Z,11.91
2018-10-03T03:29:17.489Z,11.88
2018-10-03T03:30:17.591Z,11.91
2018-10-03T03:31:17.703Z,11.9
2018-10-03T03:32:17.572Z,11.91
2018-10-03T03:33:17.428Z,11.89
2018-10-03T03:34:17.684Z,11.89
2018-10-03T03:35:17.752Z,11.88
2018-10-03T03:36:17.412Z,11.88
2018-10-03T03:37:17.457Z,11.87
2018-10-03T03:38:17.448Z,11.87
2018-10-03T03:39:17.397Z,11.86
2018-10-03T03:40:17.413Z,11.86
2018-10-03T03:41:17.406Z,11.85
2018-10-03T03:42:17.593Z,11.86
2018-10-03T03:43:17.433Z,11.86
2018-10-03T03:44:17.399Z,11.85
2018-10-03T03:45:17.380Z,11.84
2018-10-03T03:46:17.413Z,11.83
2018-10-03T03:47:17.415Z,11.81
2018-10-03T03:48:17.425Z,11.82
2018-10-03T03:49:17.397Z,11.81
2018-10-03T03:50:17.376Z,11.82
2018-10-03T03:51:17.394Z,11.81
2018-10-03T03:52:17.359Z,11.82
2018-10-03T03:53:17.444Z,11.83
2018-10-03T03:54:17.402Z,11.84
2018-10-03T03:55:17.446Z,11.82
2018-10-03T03:56:17.385Z,11.83
2018-10-03T03:57:17.395Z,11.81
2018-10-03T03:58:17.579Z,11.8
2018-10-03T03:59:17.378Z,11.82
2018-10-03T04:00:17.430Z,11.81
2018-10-03T04:01:17.417Z,11.81
2018-10-03T04:02:17.434Z,11.81
2018-10-03T04:03:17.385Z,11.8
2018-10-03T04:04:17.619Z,11.81
2018-10-03T04:05:17.371Z,11.81
2018-10-03T04:06:17.458Z,11.79
2018-10-03T04:07:17.373Z,11.76
2018-10-03T04:08:17.394Z,11.79
2018-10-03T04:09:17.512Z,11.78
2018-10-03T04:10:17.420Z,11.77
2018-10-03T04:11:17.469Z,11.75
2018-10-03T04:12:17.386Z,11.75
2018-10-03T04:13:17.445Z,11.74
2018-10-03T04:14:17.482Z,11.73
2018-10-03T04:15:17.414Z,11.74
2018-10-03T04:16:17.476Z,11.73
2018-10-03T04:17:17.428Z,11.74
2018-10-03T04:18:17.315Z,11.71
2018-10-03T04:19:17.402Z,11.7
2018-10-03T04:20:17.591Z,11.71
2018-10-03T04:21:17.324Z,11.7
2018-10-03T04:22:17.346Z,11.73
2018-10-03T04:23:17.316Z,11.71
2018-10-03T04:24:17.527Z,11.72
2018-10-03T04:25:17.639Z,11.7
2018-10-03T04:26:17.341Z,11.73
2018-10-03T04:27:17.685Z,11.71
2018-10-03T04:28:17.313Z,11.7
2018-10-03T04:29:17.318Z,11.72
2018-10-03T04:30:17.372Z,11.72
2018-10-03T04:31:17.391Z,11.72
2018-10-03T04:32:17.777Z,11.7
2018-10-03T04:33:17.319Z,11.7
2018-10-03T04:34:17.682Z,11.73
2018-10-03T04:35:17.313Z,11.71
2018-10-03T04:36:17.660Z,11.7
2018-10-03T04:37:17.301Z,11.71
2018-10-03T04:38:17.617Z,11.73
2018-10-03T04:39:17.323Z,11.74
2018-10-03T04:40:17.293Z,11.74
2018-10-03T04:41:17.373Z,11.73
2018-10-03T04:42:18.522Z,11.74
2018-10-03T04:43:17.539Z,11.75
2018-10-03T04:44:17.309Z,11.75
2018-10-03T04:45:17.624Z,11.75
2018-10-03T04:46:17.578Z,11.75
2018-10-03T04:47:17.577Z,11.78
2018-10-03T04:48:17.276Z,11.76
2018-10-03T04:49:17.491Z,11.78
2018-10-03T04:50:17.324Z,11.79
2018-10-03T04:51:17.493Z,11.8
2018-10-03T04:52:17.289Z,11.79
2018-10-03T04:53:17.262Z,11.8
2018-10-03T04:54:17.363Z,11.79
2018-10-03T04:55:17.336Z,11.79
2018-10-03T04:56:17.405Z,11.79
2018-10-03T04:57:17.475Z,11.8
2018-10-03T04:58:17.265Z,11.76
2018-10-03T04:59:17.319Z,11.79
2018-10-03T05:00:17.430Z,11.79
2018-10-03T05:01:17.454Z,11.79
2018-10-03T05:02:17.254Z,11.78
2018-10-03T05:03:17.409Z,11.79
2018-10-03T05:04:17.403Z,11.78
2018-10-03T05:05:17.257Z,11.75
2018-10-03T05:06:17.310Z,11.75
2018-10-03T05:07:17.245Z,11.75
2018-10-03T05:08:17.556Z,11.75
2018-10-03T05:09:17.269Z,11.75
2018-10-03T05:10:17.239Z,11.77
2018-10-03T05:11:18.033Z,11.74
2018-10-03T05:12:17.281Z,11.77
2018-10-03T05:13:17.258Z,11.74
2018-10-03T05:14:17.516Z,11.75
2018-10-03T05:15:17.236Z,11.77
2018-10-03T05:16:17.265Z,11.76
2018-10-03T05:17:17.250Z,11.77
2018-10-03T05:18:17.250Z,11.75
2018-10-03T05:19:17.247Z,11.77
2018-10-03T05:20:17.242Z,11.77
2018-10-03T05:21:17.239Z,11.78
2018-10-03T05:22:17.288Z,11.79
2018-10-03T05:23:17.228Z,11.76
2018-10-03T05:24:17.219Z,11.78
2018-10-03T05:25:17.244Z,11.76
2018-10-03T05:26:17.247Z,11.78
2018-10-03T05:27:17.585Z,11.76
2018-10-03T05:28:17.427Z,11.78
2018-10-03T05:29:17.268Z,11.79
2018-10-03T05:30:17.352Z,11.76
2018-10-03T05:31:17.500Z,11.78
2018-10-03T05:32:17.697Z,11.78
2018-10-03T05:33:18.014Z,11.78
2018-10-03T05:34:17.472Z,11.78
2018-10-03T05:35:17.576Z,11.79
2018-10-03T05:36:17.240Z,11.79
2018-10-03T05:37:17.245Z,11.78
2018-10-03T05:38:17.219Z,11.78
2018-10-03T05:39:17.359Z,11.79
2018-10-03T05:40:17.222Z,11.79
2018-10-03T05:41:17.358Z,11.76
2018-10-03T05:42:17.286Z,11.78
2018-10-03T05:43:17.443Z,11.78
2018-10-03T05:44:17.213Z,11.75
2018-10-03T05:45:17.206Z,11.78
2018-10-03T05:46:17.222Z,11.76
2018-10-03T05:47:17.221Z,11.78
2018-10-03T05:48:17.761Z,11.77
2018-10-03T05:49:17.406Z,11.78
2018-10-03T05:50:17.242Z,11.79
2018-10-03T05:51:17.484Z,11.76
2018-10-03T05:52:17.309Z,11.79
2018-10-03T05:53:17.685Z,11.79
2018-10-03T05:54:17.598Z,11.78
2018-10-03T05:55:17.179Z,11.75
2018-10-03T05:56:17.237Z,11.79
2018-10-03T05:57:17.331Z,11.76
2018-10-03T05:58:17.228Z,11.71
2018-10-03T05:59:17.480Z,11.69
2018-10-03T06:00:17.469Z,11.66
2018-10-03T06:01:17.714Z,11.63
2018-10-03T06:02:17.345Z,11.61
2018-10-03T06:03:17.387Z,11.58
2018-10-03T06:04:17.319Z,11.55
2018-10-03T06:05:17.502Z,11.55
2018-10-03T06:06:17.596Z,11.53
2018-10-03T06:07:17.408Z,11.49
2018-10-03T06:08:17.276Z,11.51
2018-10-03T06:09:17.303Z,11.52
2018-10-03T06:10:17.178Z,11.53
2018-10-03T06:11:17.185Z,11.49
2018-10-03T06:12:18.481Z,11.49
2018-10-03T06:13:17.190Z,11.48
2018-10-03T06:14:17.648Z,11.48
2018-10-03T06:15:17.352Z,11.49
2018-10-03T06:16:17.362Z,11.49
2018-10-03T06:17:17.227Z,11.48
2018-10-03T06:18:17.332Z,11.47
2018-10-03T06:19:17.292Z,11.47
2018-10-03T06:20:17.243Z,11.47
2018-10-03T06:21:17.405Z,11.44
2018-10-03T06:22:17.289Z,11.42
2018-10-03T06:23:17.241Z,11.43
2018-10-03T06:24:17.274Z,11.37
2018-10-03T06:25:17.232Z,11.38
2018-10-03T06:26:17.270Z,11.38
2018-10-03T06:27:17.166Z,11.39
2018-10-03T06:28:18.040Z,11.38
2018-10-03T06:29:17.295Z,11.37
2018-10-03T06:30:17.174Z,11.38
2018-10-03T06:31:17.372Z,11.37
2018-10-03T06:32:17.286Z,11.38
2018-10-03T06:33:17.493Z,11.38
2018-10-03T06:34:17.209Z,11.38
2018-10-03T06:35:17.436Z,11.38
2018-10-03T06:36:18.296Z,11.4
2018-10-03T06:37:17.158Z,11.37
2018-10-03T06:38:17.190Z,11.36
2018-10-03T06:39:17.708Z,11.37
2018-10-03T06:40:17.491Z,11.36
2018-10-03T06:41:17.202Z,11.36
2018-10-03T06:42:17.229Z,11.34
2018-10-03T06:43:17.167Z,11.32
2018-10-03T06:44:17.390Z,11.3
2018-10-03T06:45:17.369Z,11.3
2018-10-03T06:46:17.163Z,11.31
2018-10-03T06:47:17.198Z,11.34
2018-10-03T06:48:17.184Z,11.32
2018-10-03T06:49:17.142Z,11.35
2018-10-03T06:50:17.136Z,11.36
2018-10-03T06:51:17.155Z,11.37
2018-10-03T06:52:17.329Z,11.35
2018-10-03T06:54:17.244Z,11.35
2018-10-03T06:55:17.361Z,11.33
2018-10-03T06:56:17.492Z,11.31
2018-10-03T06:57:17.086Z,11.32
2018-10-03T06:58:17.281Z,11.31
2018-10-03T06:59:17.414Z,11.34
2018-10-03T07:00:17.256Z,11.32
2018-10-03T07:01:17.236Z,11.35
2018-10-03T07:02:17.234Z,11.33
2018-10-03T07:03:17.057Z,11.34
2018-10-03T07:04:17.322Z,11.32
2018-10-03T07:05:17.201Z,11.34
2018-10-03T07:06:17.235Z,11.34
2018-10-03T07:07:17.236Z,11.32
2018-10-03T07:08:17.398Z,11.35
2018-10-03T07:09:17.121Z,11.33
2018-10-03T07:10:17.318Z,11.36
2018-10-03T07:11:17.337Z,11.36
2018-10-03T07:12:17.218Z,11.37
2018-10-03T07:13:17.192Z,11.37
2018-10-03T07:14:17.223Z,11.4
2018-10-03T07:15:17.365Z,11.38
2018-10-03T07:16:17.270Z,11.41
2018-10-03T07:17:17.113Z,11.42
2018-10-03T07:18:17.146Z,11.4
2018-10-03T07:19:17.079Z,11.42
2018-10-03T07:20:18.112Z,11.41
2018-10-03T07:21:24.412Z,11.43
2018-10-03T07:22:17.160Z,11.43
2018-10-03T07:23:17.109Z,11.44
2018-10-03T07:24:17.343Z,11.44
2018-10-03T07:25:17.072Z,11.44
2018-10-03T07:26:18.117Z,11.46
2018-10-03T07:27:17.181Z,11.45
2018-10-03T07:28:17.225Z,11.5
2018-10-03T07:29:17.244Z,11.49
2018-10-03T07:30:17.184Z,11.5
2018-10-03T07:31:17.255Z,11.54
2018-10-03T07:32:17.114Z,11.55
2018-10-03T07:33:17.168Z,11.56
2018-10-03T07:34:17.096Z,11.55
2018-10-03T07:35:17.080Z,11.6
2018-10-03T07:36:17.063Z,11.6
2018-10-03T07:37:17.045Z,11.63
2018-10-03T07:38:17.132Z,11.63
2018-10-03T07:39:17.182Z,11.64
2018-10-03T07:40:17.264Z,11.68
2018-10-03T07:41:17.124Z,11.68
2018-10-03T07:42:17.938Z,11.72
2018-10-03T07:43:17.288Z,11.69
2018-10-03T07:44:17.751Z,11.73
2018-10-03T07:45:17.390Z,11.75
2018-10-03T07:46:17.099Z,11.76
2018-10-03T07:47:17.464Z,11.79
2018-10-03T07:48:17.394Z,11.82
2018-10-03T07:49:17.145Z,11.82
2018-10-03T07:50:17.178Z,11.85
2018-10-03T07:51:17.054Z,11.84
2018-10-03T07:52:17.092Z,11.86
2018-10-03T07:53:17.230Z,11.87
2018-10-03T07:54:17.336Z,11.91
2018-10-03T07:55:17.386Z,11.9
2018-10-03T07:56:18.004Z,11.94
2018-10-03T07:57:17.269Z,11.98
2018-10-03T07:58:17.176Z,12
2018-10-03T07:59:17.195Z,11.98
2018-10-03T08:00:17.182Z,11.99
2018-10-03T08:01:17.130Z,12.03
2018-10-03T08:02:17.067Z,12.04
2018-10-03T08:03:16.994Z,12.09
2018-10-03T08:04:17.005Z,12.07
2018-10-03T08:05:17.248Z,12.09
2018-10-03T08:06:17.208Z,12.1
2018-10-03T08:07:16.972Z,12.11
2018-10-03T08:08:17.178Z,12.12
2018-10-03T08:09:17.151Z,12.12
2018-10-03T08:10:16.995Z,12.15
2018-10-03T08:11:17.050Z,12.16
2018-10-03T08:12:17.012Z,12.17
2018-10-03T08:13:17.233Z,12.19
2018-10-03T08:14:17.106Z,12.23
2018-10-03T08:15:17.046Z,12.25
2018-10-03T08:16:17.007Z,12.27
2018-10-03T08:17:17.594Z,12.29
2018-10-03T08:18:17.240Z,12.3
2018-10-03T08:19:17.246Z,12.35
2018-10-03T08:20:16.996Z,12.37
2018-10-03T08:21:16.957Z,12.4
2018-10-03T08:22:17.064Z,12.42
2018-10-03T08:23:17.019Z,12.43
2018-10-03T08:24:17.034Z,12.48
2018-10-03T08:25:17.264Z,12.5
2018-10-03T08:26:16.993Z,12.54
2018-10-03T08:27:17.193Z,12.55
2018-10-03T08:28:17.176Z,12.58
2018-10-03T08:29:17.010Z,12.6
2018-10-03T08:30:16.982Z,12.63
2018-10-03T08:31:17.360Z,12.65
2018-10-03T08:32:18.009Z,12.64
2018-10-03T08:33:17.847Z,12.67
2018-10-03T08:34:17.034Z,12.7
2018-10-03T08:35:17.028Z,12.71
2018-10-03T08:36:16.961Z,12.72
2018-10-03T08:37:17.113Z,12.73
2018-10-03T08:38:17.077Z,12.8
2018-10-03T08:39:17.155Z,12.83
2018-10-03T08:40:17.208Z,12.85
2018-10-03T08:41:17.452Z,12.86
2018-10-03T08:42:17.166Z,12.93
2018-10-03T08:43:16.984Z,12.98
2018-10-03T08:44:17.063Z,13.02
2018-10-03T08:45:17.000Z,13.05
2018-10-03T08:46:17.229Z,13.1
2018-10-03T08:47:17.144Z,13.15
2018-10-03T08:48:17.176Z,13.19
2018-10-03T08:49:17.250Z,13.27
2018-10-03T08:50:17.225Z,13.33
2018-10-03T08:51:17.152Z,13.35
2018-10-03T08:52:17.250Z,13.38
2018-10-03T08:53:16.962Z,13.44
2018-10-03T08:54:17.624Z,13.42
2018-10-03T08:55:16.941Z,13.44
2018-10-03T08:56:16.974Z,13.49
2018-10-03T08:57:17.113Z,13.5
2018-10-03T08:58:18.515Z,13.53
2018-10-03T08:59:16.933Z,13.59
2018-10-03T09:00:17.113Z,13.65
2018-10-03T09:01:16.933Z,13.68
2018-10-03T09:02:17.138Z,13.71
2018-10-03T09:03:16.925Z,13.78
2018-10-03T09:04:16.948Z,13.85
2018-10-03T09:05:17.012Z,13.92
2018-10-03T09:06:17.117Z,13.99
2018-10-03T09:07:17.005Z,14.02
2018-10-03T09:08:16.977Z,14.04
2018-10-03T09:09:16.938Z,14.06
2018-10-03T09:10:17.134Z,14.04
2018-10-03T09:11:16.961Z,14.05
2018-10-03T09:12:16.923Z,14.03
2018-10-03T09:13:16.898Z,14.02
2018-10-03T09:14:17.155Z,14
2018-10-03T09:15:17.176Z,14.02
2018-10-03T09:16:17.014Z,13.98
2018-10-03T09:17:17.000Z,13.98
2018-10-03T09:18:17.168Z,13.97
2018-10-03T09:19:17.251Z,14
2018-10-03T09:20:16.936Z,14.08
2018-10-03T09:21:17.592Z,14.12
2018-10-03T09:22:16.917Z,14.17
2018-10-03T09:23:16.897Z,14.25
2018-10-03T09:24:17.061Z,14.3
2018-10-03T09:25:17.131Z,14.33
2018-10-03T09:26:17.157Z,14.36
2018-10-03T09:27:17.012Z,14.4
2018-10-03T09:28:17.583Z,14.42
2018-10-03T09:29:16.981Z,14.42
2018-10-03T09:30:16.880Z,14.4
2018-10-03T09:31:17.007Z,14.4
2018-10-03T09:32:16.972Z,14.38
2018-10-03T09:33:16.857Z,14.37
2018-10-03T09:34:16.991Z,14.37
2018-10-03T09:35:17.178Z,14.35
2018-10-03T09:36:17.123Z,14.35
2018-10-03T09:37:16.859Z,14.34
2018-10-03T09:38:16.904Z,14.35
2018-10-03T09:39:16.872Z,14.35
2018-10-03T09:40:16.931Z,14.35
2018-10-03T09:41:19.220Z,14.36
2018-10-03T09:43:18.250Z,14.37
2018-10-03T09:44:17.014Z,14.37
2018-10-03T09:45:16.935Z,14.38
2018-10-03T09:46:16.860Z,14.41
2018-10-03T09:47:16.904Z,14.42
2018-10-03T09:49:16.522Z,14.47
2018-10-03T09:50:16.877Z,14.52
2018-10-03T09:51:16.905Z,14.55
2018-10-03T09:52:17.106Z,14.61
2018-10-03T09:53:17.147Z,14.62
2018-10-03T09:54:16.988Z,14.63
2018-10-03T09:55:16.927Z,14.68
2018-10-03T09:56:17.036Z,14.72
2018-10-03T09:57:17.030Z,14.75
2018-10-03T09:58:16.880Z,14.77
2018-10-03T09:59:16.830Z,14.78
2018-10-03T10:00:17.364Z,14.78
2018-10-03T10:01:16.948Z,14.8
2018-10-03T10:02:16.893Z,14.79
2018-10-03T10:03:16.961Z,14.81
2018-10-03T10:04:18.098Z,14.85
2018-10-03T10:05:16.904Z,14.84
2018-10-03T10:06:16.935Z,14.87
2018-10-03T10:07:16.829Z,14.92
2018-10-03T10:08:17.043Z,14.97
2018-10-03T10:09:16.997Z,14.97
2018-10-03T10:10:17.784Z,14.99
2018-10-03T10:11:18.394Z,14.98
2018-10-03T10:12:17.211Z,14.97
2018-10-03T10:13:16.923Z,14.95
2018-10-03T10:14:17.205Z,14.93
2018-10-03T10:15:16.934Z,14.94
2018-10-03T10:16:16.869Z,14.95
2018-10-03T10:17:16.825Z,14.93
2018-10-03T10:18:16.868Z,14.93
2018-10-03T10:19:16.914Z,14.93
2018-10-03T10:20:16.971Z,14.95
2018-10-03T10:21:16.949Z,14.94
2018-10-03T10:22:16.910Z,14.97
2018-10-03T10:23:17.123Z,15
2018-10-03T10:24:16.804Z,15.03
2018-10-03T10:25:16.826Z,15.04
2018-10-03T10:26:16.807Z,15.06
2018-10-03T10:27:16.943Z,15.09
2018-10-03T10:28:16.824Z,15.09
2018-10-03T10:29:16.831Z,15.09
2018-10-03T10:30:17.178Z,15.11
2018-10-03T10:31:16.879Z,15.12
2018-10-03T10:32:18.351Z,15.17
2018-10-03T10:33:16.850Z,15.22
2018-10-03T10:34:17.164Z,15.23
2018-10-03T10:35:16.801Z,15.24
2018-10-03T10:36:16.916Z,15.24
2018-10-03T10:37:16.802Z,15.27
2018-10-03T10:38:17.212Z,15.27
2018-10-03T10:39:16.821Z,15.28
2018-10-03T10:40:18.765Z,15.27
2018-10-03T10:41:19.024Z,15.28
2018-10-03T10:42:16.846Z,15.28
2018-10-03T10:43:17.525Z,15.25
2018-10-03T10:44:17.138Z,15.24
2018-10-03T10:45:17.111Z,15.24
2018-10-03T10:46:16.943Z,15.27
2018-10-03T10:47:17.028Z,15.26
2018-10-03T10:48:17.023Z,15.31
2018-10-03T10:49:16.758Z,15.29
2018-10-03T10:50:18.011Z,15.29
2018-10-03T10:51:17.027Z,15.29
2018-10-03T10:52:16.894Z,15.3
2018-10-03T10:53:17.127Z,15.36
2018-10-03T10:54:17.007Z,15.37
2018-10-03T10:55:17.094Z,15.42
2018-10-03T10:56:17.022Z,15.4
2018-10-03T10:57:17.031Z,15.42
2018-10-03T10:58:16.855Z,15.47
2018-10-03T10:59:16.999Z,15.49
2018-10-03T11:00:17.118Z,15.53
2018-10-03T11:01:17.406Z,15.56
2018-10-03T11:02:16.970Z,15.55
2018-10-03T11:03:16.959Z,15.57
2018-10-03T11:04:16.997Z,15.6
2018-10-03T11:05:16.994Z,15.61
2018-10-03T11:06:17.788Z,15.62
2018-10-03T11:07:16.899Z,15.62
2018-10-03T11:08:16.856Z,15.67
2018-10-03T11:09:16.968Z,15.68
2018-10-03T11:10:16.947Z,15.69
2018-10-03T11:11:16.927Z,15.72
2018-10-03T11:12:18.227Z,15.72
2018-10-03T11:13:17.800Z,15.74
2018-10-03T11:14:16.760Z,15.74
2018-10-03T11:15:16.781Z,15.75
2018-10-03T11:16:16.814Z,15.74
2018-10-03T11:17:16.797Z,15.79
2018-10-03T11:18:16.736Z,15.78
2018-10-03T11:19:16.771Z,15.78
2018-10-03T11:20:16.874Z,15.8
2018-10-03T11:21:16.753Z,15.81
2018-10-03T11:22:16.817Z,15.81
2018-10-03T11:23:17.020Z,15.82
2018-10-03T11:24:18.857Z,15.82
2018-10-03T11:25:16.951Z,15.8
2018-10-03T11:26:16.911Z,15.76
2018-10-03T11:27:16.860Z,15.79
2018-10-03T11:28:16.879Z,15.8
2018-10-03T11:29:16.390Z,15.82
2018-10-03T11:30:16.754Z,15.82
2018-10-03T11:31:16.749Z,15.82
2018-10-03T11:32:18.117Z,15.77
2018-10-03T11:33:16.870Z,15.77
2018-10-03T11:34:16.740Z,15.79
2018-10-03T11:35:16.918Z,15.81
2018-10-03T11:36:16.760Z,15.84
2018-10-03T11:37:16.921Z,15.86
2018-10-03T11:38:17.604Z,15.88
2018-10-03T11:39:17.043Z,15.89
2018-10-03T11:40:16.996Z,15.89
2018-10-03T11:41:16.720Z,15.92
2018-10-03T11:42:16.840Z,15.89
2018-10-03T11:43:16.707Z,15.92
2018-10-03T11:44:16.871Z,15.96
2018-10-03T11:45:16.729Z,15.94
2018-10-03T11:46:16.700Z,15.92
2018-10-03T11:47:16.818Z,15.92
2018-10-03T11:48:16.815Z,15.98
2018-10-03T11:49:16.690Z,16.03
2018-10-03T11:50:16.781Z,16.02
2018-10-03T11:51:16.908Z,16.05
2018-10-03T11:52:16.920Z,16.08
2018-10-03T11:53:16.700Z,16.14
2018-10-03T11:54:16.716Z,16.17
2018-10-03T11:55:16.681Z,16.19
2018-10-03T11:56:16.982Z,16.22
2018-10-03T11:57:16.798Z,16.23
2018-10-03T11:58:16.746Z,16.23
2018-10-03T11:59:16.892Z,16.28
2018-10-03T12:00:16.756Z,16.29
2018-10-03T12:01:16.850Z,16.31
2018-10-03T12:02:16.966Z,16.34
2018-10-03T12:03:18.136Z,16.38
2018-10-03T12:04:16.926Z,16.37
2018-10-03T12:05:16.709Z,16.38
2018-10-03T12:06:16.731Z,16.39
2018-10-03T12:07:16.717Z,16.4
2018-10-03T12:08:17.512Z,16.41
2018-10-03T12:09:17.575Z,16.43
2018-10-03T12:10:16.935Z,16.46
2018-10-03T12:11:16.779Z,16.47
2018-10-03T12:12:16.731Z,16.45
2018-10-03T12:13:16.835Z,16.47
2018-10-03T12:14:16.747Z,16.49
2018-10-03T12:15:16.822Z,16.53
2018-10-03T12:16:16.686Z,16.55
2018-10-03T12:17:16.850Z,16.53
2018-10-03T12:18:16.705Z,16.48
2018-10-03T12:19:16.845Z,16.52
2018-10-03T12:20:16.799Z,16.52
2018-10-03T12:21:16.930Z,16.52
2018-10-03T12:22:16.667Z,16.54
2018-10-03T12:23:16.738Z,16.58
2018-10-03T12:24:16.812Z,16.6
2018-10-03T12:25:17.709Z,16.6
2018-10-03T12:26:16.658Z,16.6
2018-10-03T12:27:16.663Z,16.65
2018-10-03T12:28:16.655Z,16.65
2018-10-03T12:29:16.850Z,16.66
2018-10-03T12:30:17.064Z,16.62
2018-10-03T12:31:21.061Z,16.62
2018-10-03T12:32:16.474Z,16.59
2018-10-03T12:33:17.371Z,16.58
2018-10-03T12:34:16.653Z,16.55
2018-10-03T12:35:16.815Z,16.56
2018-10-03T12:36:16.679Z,16.61
2018-10-03T12:37:16.639Z,16.64
2018-10-03T12:38:16.639Z,16.66
2018-10-03T12:39:16.626Z,16.67
2018-10-03T12:40:16.840Z,16.67
2018-10-03T12:41:16.817Z,16.69
2018-10-03T12:42:16.828Z,16.7
2018-10-03T12:43:16.812Z,16.68
2018-10-03T12:44:16.922Z,16.7
2018-10-03T12:45:16.866Z,16.71
2018-10-03T12:46:16.798Z,16.71
2018-10-03T12:47:16.719Z,16.72
2018-10-03T12:48:16.767Z,16.75
2018-10-03T12:49:16.657Z,16.78
2018-10-03T12:50:16.653Z,16.8
2018-10-03T12:51:16.894Z,16.82
2018-10-03T12:52:16.696Z,16.82
2018-10-03T12:53:16.617Z,16.85
2018-10-03T12:54:16.700Z,16.88
2018-10-03T12:55:16.711Z,16.91
2018-10-03T12:56:16.760Z,16.93
2018-10-03T12:57:16.747Z,16.9
2018-10-03T12:58:16.721Z,16.95
2018-10-03T12:59:16.869Z,16.98